createdAt,value
2023-04-17T00:01:39.165Z,3.23
2023-04-17T00:04:10.729Z,2.80
2023-04-17T00:06:38.462Z,3.47
2023-04-17T00:09:05.411Z,3.90
2023-04-17T00:11:32.273Z,2.40
2023-04-17T00:13:59.009Z,2.23
2023-04-17T00:16:27.224Z,2.60
2023-04-17T00:18:54.788Z,2.33
2023-04-17T00:21:22.269Z,3.10
2023-04-17T00:23:49.050Z,3.00
2023-04-17T00:26:16.436Z,4.10
2023-04-17T00:28:43.214Z,3.50
2023-04-17T00:31:09.996Z,3.10
2023-04-17T00:33:36.684Z,3.97
2023-04-17T00:36:03.520Z,5.80
2023-04-17T00:38:30.210Z,3.83
2023-04-17T00:40:57.005Z,4.43
2023-04-17T00:43:23.826Z,3.30
2023-04-17T00:45:51.134Z,3.47
2023-04-17T00:48:19.073Z,3.30
2023-04-17T00:50:47.374Z,4.67
2023-04-17T00:53:14.525Z,4.20
2023-04-17T00:55:43.120Z,7.03
2023-04-17T00:58:11.068Z,4.00
2023-04-17T01:00:37.986Z,4.57
2023-04-17T01:03:05.342Z,5.50
2023-04-17T01:05:32.309Z,4.70
2023-04-17T01:07:59.197Z,3.63
2023-04-17T01:10:25.940Z,4.70
2023-04-17T01:13:06.178Z,3.77
2023-04-17T01:15:33.388Z,3.83
2023-04-17T01:18:00.561Z,7.33
2023-04-17T01:20:31.367Z,5.13
2023-04-17T01:22:59.013Z,4.07
2023-04-17T01:25:27.444Z,4.40
2023-04-17T01:27:54.449Z,6.33
2023-04-17T01:30:21.492Z,5.20
2023-04-17T01:32:48.369Z,5.87
2023-04-17T01:35:15.330Z,5.60
2023-04-17T01:37:42.025Z,6.03
2023-04-17T01:40:09.673Z,4.90
2023-04-17T01:42:36.525Z,7.10
2023-04-17T01:45:03.706Z,4.80
2023-04-17T01:47:30.494Z,6.73
2023-04-17T01:49:57.227Z,5.83
2023-04-17T01:52:23.903Z,5.67
2023-04-17T01:54:50.636Z,6.00
2023-04-17T01:57:17.310Z,6.23
2023-04-17T01:59:44.067Z,5.53
2023-04-17T02:02:10.928Z,7.53
2023-04-17T02:04:37.835Z,6.03
2023-04-17T02:07:04.620Z,5.87
2023-04-17T02:09:31.349Z,6.60
2023-04-17T02:11:58.121Z,7.67
2023-04-17T02:14:25.303Z,7.23
2023-04-17T02:16:53.780Z,4.70
2023-04-17T02:19:21.466Z,5.67
2023-04-17T02:21:48.288Z,5.00
2023-04-17T02:24:15.066Z,5.77
2023-04-17T02:26:41.889Z,5.00
2023-04-17T02:29:08.820Z,5.40
2023-04-17T02:31:35.859Z,6.70
2023-04-17T02:34:02.906Z,7.13
2023-04-17T02:36:29.690Z,5.50
2023-04-17T02:38:56.400Z,10.13
2023-04-17T02:41:23.269Z,8.63
2023-04-17T02:43:50.285Z,7.77
2023-04-17T02:46:16.991Z,9.50
2023-04-17T02:48:43.714Z,7.87
2023-04-17T02:51:10.751Z,7.17
2023-04-17T02:53:37.490Z,8.10
2023-04-17T02:56:04.542Z,6.97
2023-04-17T02:58:31.799Z,7.30
2023-04-17T03:01:03.001Z,8.20
2023-04-17T03:03:35.015Z,8.20
2023-04-17T03:06:02.562Z,7.20
2023-04-17T03:08:32.535Z,6.40
2023-04-17T03:10:59.769Z,6.10
2023-04-17T03:13:26.528Z,7.80
2023-04-17T03:15:53.279Z,7.67
2023-04-17T03:18:20.089Z,10.83
2023-04-17T03:20:46.872Z,7.37
2023-04-17T03:23:13.618Z,5.67
2023-04-17T03:25:40.533Z,7.37
2023-04-17T03:28:07.313Z,7.10
2023-04-17T03:30:34.055Z,8.17
2023-04-17T03:33:00.900Z,8.37
2023-04-17T03:35:27.732Z,8.57
2023-04-17T03:37:54.693Z,7.70
2023-04-17T03:40:21.417Z,8.80
2023-04-17T03:42:48.431Z,10.37
2023-04-17T03:45:16.829Z,9.77
2023-04-17T03:47:43.743Z,9.13
2023-04-17T03:50:10.829Z,9.77
2023-04-17T03:52:37.598Z,16.00
2023-04-17T03:55:04.949Z,9.70
2023-04-17T03:57:31.749Z,9.20
2023-04-17T03:59:58.517Z,9.70
2023-04-17T04:02:25.566Z,8.90
2023-04-17T04:04:53.536Z,10.63
2023-04-17T04:07:21.483Z,10.70
2023-04-17T04:09:48.287Z,9.57
2023-04-17T04:12:15.835Z,8.90
2023-04-17T04:14:42.671Z,9.80
2023-04-17T04:17:09.407Z,9.70
2023-04-17T04:19:36.238Z,9.40
2023-04-17T04:22:06.719Z,10.97
2023-04-17T04:24:34.084Z,8.10
2023-04-17T04:27:05.170Z,13.73
2023-04-17T04:29:32.741Z,7.13
2023-04-17T04:32:00.229Z,12.10
2023-04-17T04:34:29.821Z,10.43
2023-04-17T04:36:59.373Z,10.00
2023-04-17T04:39:26.317Z,11.90
2023-04-17T04:41:53.195Z,11.40
2023-04-17T04:44:20.361Z,9.73
2023-04-17T04:46:47.508Z,11.03
2023-04-17T04:49:14.324Z,11.97
2023-04-17T04:51:41.116Z,10.50
2023-04-17T04:54:07.819Z,12.10
2023-04-17T04:56:34.648Z,14.10
2023-04-17T04:59:01.402Z,13.60
2023-04-17T05:01:29.819Z,11.63
2023-04-17T05:03:57.071Z,16.20
2023-04-17T05:06:24.006Z,12.73
2023-04-17T05:08:51.346Z,9.50
2023-04-17T05:11:18.091Z,11.13
2023-04-17T05:13:44.860Z,12.47
2023-04-17T05:16:11.611Z,14.43
2023-04-17T05:18:38.388Z,13.63
2023-04-17T05:21:05.588Z,15.47
2023-04-17T05:23:32.423Z,14.23
2023-04-17T05:25:59.139Z,14.03
2023-04-17T05:28:27.294Z,16.90
2023-04-17T05:30:54.088Z,15.87
2023-04-17T05:33:20.915Z,15.20
2023-04-17T05:35:47.846Z,14.87
2023-04-17T05:38:14.530Z,13.40
2023-04-17T05:40:41.306Z,19.00
2023-04-17T05:43:10.054Z,16.37
2023-04-17T05:45:37.129Z,17.47
2023-04-17T05:48:04.618Z,20.17
2023-04-17T05:50:31.629Z,18.00
2023-04-17T05:52:58.409Z,20.10
2023-04-17T05:55:25.262Z,17.93
2023-04-17T05:57:52.040Z,16.70
2023-04-17T06:00:22.672Z,14.67
2023-04-17T06:02:49.960Z,18.40
2023-04-17T06:05:18.414Z,18.13
2023-04-17T06:07:45.461Z,20.07
2023-04-17T06:10:12.795Z,20.73
2023-04-17T06:12:39.715Z,14.23
2023-04-17T06:15:09.184Z,14.40
2023-04-17T06:17:39.948Z,15.70
2023-04-17T06:20:10.415Z,19.93
2023-04-17T06:22:38.123Z,15.43
2023-04-17T06:25:05.440Z,22.73
2023-04-17T06:27:33.378Z,16.90
2023-04-17T06:30:02.133Z,17.90
2023-04-17T06:32:28.923Z,19.17
2023-04-17T06:34:59.590Z,22.57
2023-04-17T06:37:26.616Z,17.10
2023-04-17T06:39:53.307Z,18.17
2023-04-17T06:42:20.582Z,14.70
2023-04-17T06:44:47.297Z,14.37
2023-04-17T06:47:14.068Z,19.33
2023-04-17T06:49:40.760Z,16.70
2023-04-17T06:52:07.558Z,15.00
2023-04-17T06:54:34.330Z,12.17
2023-04-17T06:57:01.833Z,12.10
2023-04-17T06:59:28.587Z,12.40
2023-04-17T07:01:55.522Z,14.30
2023-04-17T07:04:22.497Z,13.87
2023-04-17T07:06:49.312Z,14.77
2023-04-17T07:09:16.480Z,15.07
2023-04-17T07:11:43.235Z,15.63
2023-04-17T07:14:11.659Z,12.47
2023-04-17T07:16:39.704Z,17.80
2023-04-17T07:19:06.506Z,13.47
2023-04-17T07:21:33.207Z,12.70
2023-04-17T07:24:00.099Z,13.10
2023-04-17T07:26:26.926Z,13.40
2023-04-17T07:28:53.716Z,13.23
2023-04-17T07:31:22.043Z,13.10
2023-04-17T07:33:49.239Z,11.20
2023-04-17T07:36:16.309Z,10.30
2023-04-17T07:38:43.150Z,10.90
2023-04-17T07:41:11.617Z,9.60
2023-04-17T07:43:38.608Z,8.90
2023-04-17T07:46:05.775Z,9.20
2023-04-17T07:48:32.541Z,10.40
2023-04-17T07:51:02.426Z,9.63
2023-04-17T07:53:29.804Z,9.07
2023-04-17T07:55:56.877Z,10.33
2023-04-17T07:58:24.082Z,10.83
2023-04-17T08:00:52.144Z,8.57
2023-04-17T08:03:22.340Z,9.40
2023-04-17T08:05:49.617Z,8.63
2023-04-17T08:08:16.415Z,10.70
2023-04-17T08:10:43.159Z,9.03
2023-04-17T08:13:10.037Z,9.10
2023-04-17T08:15:40.539Z,8.67
2023-04-17T08:18:09.679Z,9.10
2023-04-17T08:20:37.019Z,8.77
2023-04-17T08:23:05.147Z,10.90
2023-04-17T08:25:32.193Z,11.40
2023-04-17T08:27:58.966Z,35.77
2023-04-17T08:30:25.812Z,13.87
2023-04-17T08:32:52.761Z,24.27
2023-04-17T08:35:19.529Z,22.90
2023-04-17T08:37:49.331Z,21.83
2023-04-17T08:40:17.182Z,11.73
2023-04-17T08:42:44.503Z,10.33
2023-04-17T08:45:13.173Z,9.30
2023-04-17T08:47:41.748Z,9.63
2023-04-17T08:50:09.790Z,12.67
2023-04-17T08:52:47.593Z,57.30
2023-04-17T08:55:19.591Z,29.17
2023-04-17T08:58:01.490Z,13.83
2023-04-17T09:00:29.847Z,18.17
2023-04-17T09:02:58.827Z,15.90
2023-04-17T09:05:27.431Z,8.40
2023-04-17T09:08:14.549Z,9.30
2023-04-17T09:10:44.763Z,7.77
2023-04-17T09:13:14.738Z,7.83
2023-04-17T09:15:43.487Z,7.63
2023-04-17T09:18:31.085Z,7.70
2023-04-17T09:20:59.837Z,7.37
2023-04-17T09:23:28.230Z,7.60
2023-04-17T09:26:10.983Z,6.70
2023-04-17T09:28:41.316Z,12.17
2023-04-17T09:31:26.427Z,8.47
2023-04-17T09:34:05.032Z,7.40
2023-04-17T09:36:33.635Z,6.60
2023-04-17T09:39:03.844Z,6.20
2023-04-17T09:41:32.563Z,5.70
2023-04-17T09:44:02.074Z,6.70
2023-04-17T09:46:41.253Z,6.70
2023-04-17T09:49:36.451Z,6.10
2023-04-17T09:52:03.802Z,7.00
2023-04-17T09:54:37.755Z,11.60
2023-04-17T09:57:08.356Z,6.57
2023-04-17T09:59:46.690Z,6.60
2023-04-17T10:02:14.354Z,5.63
2023-04-17T10:04:42.646Z,9.43
2023-04-17T10:07:09.925Z,9.50
2023-04-17T10:09:37.137Z,7.67
2023-04-17T10:12:05.215Z,7.00
2023-04-17T10:14:34.102Z,7.23
2023-04-17T10:17:28.731Z,7.17
2023-04-17T10:19:55.936Z,12.87
2023-04-17T10:22:24.071Z,6.13
2023-04-17T10:24:52.972Z,6.00
2023-04-17T10:27:26.233Z,5.83
2023-04-17T10:30:04.176Z,6.27
2023-04-17T10:32:32.558Z,5.97
2023-04-17T10:35:22.402Z,7.30
2023-04-17T10:37:52.038Z,6.20
2023-04-17T10:40:24.111Z,6.30
2023-04-17T10:43:23.553Z,6.73
2023-04-17T10:46:03.865Z,6.67
2023-04-17T10:48:52.409Z,6.90
2023-04-17T10:51:26.880Z,5.50
2023-04-17T10:54:05.579Z,7.00
2023-04-17T10:56:39.083Z,5.17
2023-04-17T10:59:14.195Z,4.97
2023-04-17T11:02:01.488Z,7.10
2023-04-17T11:04:30.375Z,5.80
2023-04-17T11:06:57.972Z,4.70
2023-04-17T11:09:27.873Z,4.67
2023-04-17T11:11:55.339Z,4.60
2023-04-17T11:14:23.559Z,4.40
2023-04-17T11:16:51.748Z,4.63
2023-04-17T11:19:23.977Z,4.90
2023-04-17T11:21:58.422Z,4.30
2023-04-17T11:24:32.095Z,4.70
2023-04-17T11:27:01.068Z,7.00
2023-04-17T11:29:28.354Z,4.70
2023-04-17T11:31:57.328Z,4.37
2023-04-17T11:34:26.077Z,3.77
2023-04-17T11:36:54.778Z,5.50
2023-04-17T11:39:23.565Z,4.67
2023-04-17T11:41:52.075Z,3.97
2023-04-17T11:44:23.577Z,4.20
2023-04-17T11:46:51.827Z,6.10
2023-04-17T11:49:29.490Z,5.50
2023-04-17T11:51:58.940Z,6.53
2023-04-17T11:54:35.125Z,6.03
2023-04-17T11:57:04.611Z,11.57
2023-04-17T11:59:39.163Z,5.00
2023-04-17T12:02:08.245Z,4.90
2023-04-17T12:04:36.894Z,9.00
2023-04-17T12:07:05.628Z,12.00
2023-04-17T12:09:33.697Z,4.17
2023-04-17T12:12:02.715Z,3.80
2023-04-17T12:14:29.823Z,4.00
2023-04-17T12:16:56.637Z,5.80
2023-04-17T12:19:25.480Z,11.03
2023-04-17T12:21:52.602Z,5.63
2023-04-17T12:24:20.834Z,3.90
2023-04-17T12:26:48.331Z,5.00
2023-04-17T12:29:16.021Z,4.00
2023-04-17T12:31:43.497Z,4.73
2023-04-17T12:34:10.538Z,4.47
2023-04-17T12:36:37.980Z,3.70
2023-04-17T12:39:04.805Z,4.23
2023-04-17T12:41:31.945Z,4.07
2023-04-17T12:44:01.725Z,4.10
2023-04-17T12:46:28.732Z,3.63
2023-04-17T12:48:58.575Z,4.60
2023-04-17T12:51:29.312Z,4.53
2023-04-17T12:53:56.739Z,4.93
2023-04-17T12:56:23.951Z,4.43
2023-04-17T12:58:50.971Z,5.83
2023-04-17T13:01:17.689Z,4.87
2023-04-17T13:03:44.717Z,5.67
2023-04-17T13:06:12.280Z,5.57
2023-04-17T13:08:39.121Z,7.53
2023-04-17T13:11:06.076Z,4.73
2023-04-17T13:13:32.807Z,4.13
2023-04-17T13:15:59.567Z,4.40
2023-04-17T13:18:26.410Z,4.60
2023-04-17T13:20:53.155Z,4.27
2023-04-17T13:23:19.960Z,5.03
2023-04-17T13:25:48.739Z,3.50
2023-04-17T13:28:15.499Z,3.87
2023-04-17T13:30:42.278Z,4.13
2023-04-17T13:33:09.109Z,4.50
2023-04-17T13:35:35.973Z,4.20
2023-04-17T13:38:03.126Z,4.13
2023-04-17T13:40:31.196Z,4.57
2023-04-17T13:42:58.487Z,3.90
2023-04-17T13:45:25.309Z,3.90
2023-04-17T13:47:52.112Z,6.70
2023-04-17T13:50:18.990Z,4.93
2023-04-17T13:52:45.686Z,4.03
2023-04-17T13:55:14.690Z,3.00
2023-04-17T13:57:41.591Z,3.30
2023-04-17T14:00:09.012Z,4.13
2023-04-17T14:02:35.996Z,4.83
2023-04-17T14:05:03.166Z,5.20
2023-04-17T14:07:30.275Z,7.40
2023-04-17T14:09:57.043Z,3.80
2023-04-17T14:12:23.754Z,4.93
2023-04-17T14:14:50.636Z,3.03
2023-04-17T14:17:18.086Z,2.20
2023-04-17T14:19:44.901Z,1.67
2023-04-17T14:22:11.588Z,2.20
2023-04-17T14:24:38.325Z,2.03
2023-04-17T14:27:05.322Z,4.00
2023-04-17T14:29:32.013Z,2.90
2023-04-17T14:31:58.983Z,2.30
2023-04-17T14:34:25.813Z,5.10
2023-04-17T14:36:53.126Z,2.03
2023-04-17T14:39:19.984Z,1.50
2023-04-17T14:41:46.819Z,4.30
2023-04-17T14:44:13.785Z,5.83
2023-04-17T14:46:40.708Z,6.97
2023-04-17T14:49:07.972Z,4.20
2023-04-17T14:51:34.694Z,3.70
2023-04-17T14:54:01.460Z,4.13
2023-04-17T14:56:28.298Z,2.33
2023-04-17T14:58:55.234Z,1.77
2023-04-17T15:01:22.099Z,7.03
2023-04-17T15:03:50.052Z,2.07
2023-04-17T15:06:18.786Z,5.33
2023-04-17T15:08:46.200Z,3.07
2023-04-17T15:11:13.044Z,2.23
2023-04-17T15:13:40.516Z,2.37
2023-04-17T15:16:09.676Z,4.50
2023-04-17T15:18:36.749Z,2.53
2023-04-17T15:21:03.585Z,2.27
2023-04-17T15:23:30.396Z,4.60
2023-04-17T15:25:57.848Z,2.10
2023-04-17T15:28:25.411Z,2.00
2023-04-17T15:30:52.147Z,2.47
2023-04-17T15:33:19.589Z,2.47
2023-04-17T15:35:46.550Z,3.73
2023-04-17T15:38:13.340Z,4.90
2023-04-17T15:40:40.091Z,4.30
2023-04-17T15:43:06.882Z,3.17
2023-04-17T15:45:33.589Z,2.50
2023-04-17T15:48:01.618Z,3.27
2023-04-17T15:50:28.498Z,4.70
2023-04-17T15:52:55.206Z,2.97
2023-04-17T15:55:21.986Z,3.63
2023-04-17T15:57:48.769Z,2.70
2023-04-17T16:00:16.065Z,2.93
2023-04-17T16:02:43.000Z,2.00
2023-04-17T16:05:09.977Z,3.37
2023-04-17T16:07:36.688Z,3.33
2023-04-17T16:10:03.531Z,2.67
2023-04-17T16:12:30.283Z,3.93
2023-04-17T16:14:57.007Z,3.50
2023-04-17T16:17:23.825Z,2.53
2023-04-17T16:19:50.976Z,2.70
2023-04-17T16:22:18.972Z,8.23
2023-04-17T16:24:45.661Z,5.50
2023-04-17T16:27:12.506Z,3.90
2023-04-17T16:29:39.312Z,3.37
2023-04-17T16:32:06.115Z,2.90
2023-04-17T16:34:33.355Z,5.00
2023-04-17T16:37:00.236Z,3.10
2023-04-17T16:39:26.987Z,3.50
2023-04-17T16:41:53.817Z,3.13
2023-04-17T16:44:20.579Z,2.77
2023-04-17T16:47:05.525Z,3.13
2023-04-17T16:49:34.128Z,4.13
2023-04-17T16:52:00.841Z,3.50
2023-04-17T16:54:27.603Z,2.50
2023-04-17T16:56:54.322Z,4.07
2023-04-17T16:59:21.085Z,4.90
2023-04-17T17:01:49.655Z,2.83
2023-04-17T17:04:16.663Z,2.93
2023-04-17T17:06:43.510Z,3.67
2023-04-17T17:09:10.565Z,4.30
2023-04-17T17:11:37.418Z,3.40
2023-04-17T17:14:04.180Z,5.30
2023-04-17T17:16:30.966Z,4.50
2023-04-17T17:18:57.815Z,3.40
2023-04-17T17:21:24.605Z,4.83
2023-04-17T17:23:51.436Z,3.50
2023-04-17T17:26:18.232Z,3.50
2023-04-17T17:28:50.813Z,4.60
2023-04-17T17:31:17.773Z,3.80
2023-04-17T17:33:44.787Z,5.03
2023-04-17T17:36:11.978Z,3.33
2023-04-17T17:38:39.018Z,3.57
2023-04-17T17:41:06.018Z,3.40
2023-04-17T17:43:32.745Z,7.03
2023-04-17T17:45:59.581Z,5.20
2023-04-17T17:48:26.867Z,5.67
2023-04-17T17:50:54.758Z,4.70
2023-04-17T17:53:26.439Z,7.57
2023-04-17T17:55:55.116Z,7.03
2023-04-17T17:58:22.457Z,8.10
2023-04-17T18:00:50.133Z,7.50
2023-04-17T18:03:17.020Z,5.87
2023-04-17T18:05:44.623Z,5.37
2023-04-17T18:08:11.406Z,4.23
2023-04-17T18:10:38.285Z,4.57
2023-04-17T18:13:05.495Z,6.03
2023-04-17T18:15:32.476Z,5.53
2023-04-17T18:17:59.279Z,4.50
2023-04-17T18:20:26.177Z,5.53
2023-04-17T18:22:53.026Z,4.63
2023-04-17T18:25:19.956Z,6.20
2023-04-17T18:27:46.652Z,4.47
2023-04-17T18:30:14.190Z,4.50
2023-04-17T18:32:40.907Z,5.30
2023-04-17T18:35:08.068Z,5.77
2023-04-17T18:37:34.762Z,5.03
2023-04-17T18:40:05.175Z,6.10
2023-04-17T18:42:31.943Z,7.90
2023-04-17T18:44:58.750Z,7.20
2023-04-17T18:47:25.571Z,5.60
2023-04-17T18:49:53.217Z,7.17
2023-04-17T18:52:20.329Z,5.33
2023-04-17T18:54:47.319Z,5.10
2023-04-17T18:57:14.049Z,5.57
2023-04-17T18:59:42.724Z,4.20
2023-04-17T19:02:10.054Z,4.00
2023-04-17T19:04:36.926Z,5.37
2023-04-17T19:07:03.716Z,4.43
2023-04-17T19:09:30.647Z,3.70
2023-04-17T19:11:58.506Z,4.00
2023-04-17T19:14:25.406Z,4.10
2023-04-17T19:16:53.388Z,5.40
2023-04-17T19:19:20.436Z,5.23
2023-04-17T19:21:47.201Z,6.50
2023-04-17T19:24:13.987Z,5.53
2023-04-17T19:26:41.261Z,5.70
2023-04-17T19:29:08.087Z,6.67
2023-04-17T19:31:34.897Z,6.27
2023-04-17T19:34:01.709Z,6.67
2023-04-17T19:36:28.588Z,5.83
2023-04-17T19:38:59.090Z,6.87
2023-04-17T19:41:26.395Z,8.80
2023-04-17T19:43:55.910Z,7.10
2023-04-17T19:46:23.896Z,7.57
2023-04-17T19:48:52.262Z,6.67
2023-04-17T19:51:19.027Z,6.83
2023-04-17T19:53:47.487Z,8.50
2023-04-17T19:56:14.446Z,7.73
2023-04-17T19:58:41.761Z,9.87
2023-04-17T20:01:08.747Z,10.37
2023-04-17T20:03:38.280Z,11.60
2023-04-17T20:06:05.435Z,8.17
2023-04-17T20:08:32.277Z,9.50
2023-04-17T20:10:59.498Z,15.93
2023-04-17T20:13:27.814Z,11.57
2023-04-17T20:15:54.635Z,10.80
2023-04-17T20:18:21.562Z,11.70
2023-04-17T20:20:48.316Z,12.30
2023-04-17T20:23:15.184Z,11.23
2023-04-17T20:25:41.981Z,12.30
2023-04-17T20:28:09.634Z,14.10
2023-04-17T20:30:36.440Z,14.60
2023-04-17T20:33:03.493Z,13.30
2023-04-17T20:35:30.614Z,16.03
2023-04-17T20:37:57.442Z,15.67
2023-04-17T20:40:24.174Z,15.17
2023-04-17T20:42:51.044Z,17.20
2023-04-17T20:45:17.807Z,16.00
2023-04-17T20:50:15.222Z,17.17
2023-04-17T20:52:42.181Z,17.17
2023-04-17T20:55:09.264Z,16.90
2023-04-17T20:57:36.088Z,17.73
2023-04-17T21:00:03.809Z,17.63
2023-04-17T21:02:33.057Z,16.93
2023-04-17T21:05:00.127Z,18.97
2023-04-17T21:07:26.875Z,13.93
2023-04-17T21:09:53.558Z,15.70
2023-04-17T21:12:20.623Z,19.30
2023-04-17T21:14:47.390Z,16.20
2023-04-17T21:17:14.216Z,17.90
2023-04-17T21:19:41.282Z,15.67
2023-04-17T21:22:08.125Z,20.40
2023-04-17T21:24:35.569Z,17.37
2023-04-17T21:27:02.515Z,19.93
2023-04-17T21:29:29.802Z,20.93
2023-04-17T21:31:56.985Z,18.83
2023-04-17T21:34:24.590Z,19.07
2023-04-17T21:36:53.523Z,17.40
2023-04-17T21:39:21.002Z,21.87
2023-04-17T21:41:47.759Z,19.73
2023-04-17T21:44:15.581Z,21.07
2023-04-17T21:46:46.043Z,17.63
2023-04-17T21:49:13.123Z,23.90
2023-04-17T21:51:40.073Z,19.50
2023-04-17T21:54:07.933Z,20.60
2023-04-17T21:56:34.623Z,19.60
2023-04-17T21:59:01.524Z,22.27
2023-04-17T22:01:28.437Z,24.70
2023-04-17T22:03:55.360Z,18.40
2023-04-17T22:06:22.190Z,21.30
2023-04-17T22:08:49.023Z,23.30
2023-04-17T22:11:15.811Z,23.50
2023-04-17T22:13:42.807Z,23.73
2023-04-17T22:16:09.628Z,16.97
2023-04-17T22:18:36.390Z,20.47
2023-04-17T22:21:03.640Z,21.33
2023-04-17T22:23:30.556Z,23.47
2023-04-17T22:25:57.305Z,21.73
2023-04-17T22:28:24.130Z,24.63
2023-04-17T22:30:51.978Z,20.13
2023-04-17T22:33:18.812Z,20.70
2023-04-17T22:35:45.600Z,24.20
2023-04-17T22:38:12.464Z,19.00
2023-04-17T22:40:40.156Z,21.30
2023-04-17T22:43:07.033Z,20.40
2023-04-17T22:45:34.033Z,18.13
2023-04-17T22:48:01.106Z,18.67
2023-04-17T22:50:30.418Z,20.57
2023-04-17T22:52:57.282Z,22.20
2023-04-17T22:55:24.139Z,21.60
2023-04-17T22:57:50.952Z,20.53
2023-04-17T23:00:19.995Z,20.47
2023-04-17T23:02:47.389Z,18.83
2023-04-17T23:05:14.498Z,21.00
2023-04-17T23:07:41.388Z,18.80
2023-04-17T23:10:08.585Z,19.80
2023-04-17T23:12:35.301Z,26.00
2023-04-17T23:15:02.436Z,22.90
2023-04-17T23:17:29.248Z,20.07
2023-04-17T23:19:56.078Z,20.00
2023-04-17T23:22:23.118Z,22.33
2023-04-17T23:24:49.869Z,21.30
2023-04-17T23:27:16.731Z,20.57
2023-04-17T23:29:43.458Z,21.30
2023-04-17T23:32:10.240Z,24.90
2023-04-17T23:34:37.712Z,23.30
2023-04-17T23:37:04.523Z,20.13
2023-04-17T23:39:31.292Z,18.77
2023-04-17T23:41:59.010Z,32.77
2023-04-17T23:44:25.759Z,21.57
2023-04-17T23:46:52.503Z,25.20
2023-04-17T23:49:19.228Z,20.17
2023-04-17T23:51:45.959Z,24.77
2023-04-17T23:54:12.921Z,19.87
2023-04-17T23:56:39.945Z,17.97
2023-04-17T23:59:06.791Z,21.87
